Filskov, Denmark
Current Conditions -  °F | °C
As of 5:37 PM on Tuesday 21 Oct 2014 (Local Time) from EKBI Reporting Station
Light Rain Light Rain  
Wind Chill: 52°   Ceiling: 500
Heat Index: 52°   Visibility: 1.7mi
Dew Point: 52°   Wind: 15mph
Humidity: 100%   Direction: 140°SE
Pressure: 29.26"   Gusts: NA
Location:  55.81°N, 9.02°E
Report Text: EKBI 211537Z 14013KT 2800 -DZRA BR BKN005 11/11 Q0991
Loading
Personal Weather Stations






























Interactive Weather Map
Tropical Storm Tracking
New forecast layout! Learn more

10-Day Weather Forecast

Advertisements
Track Severe Weather on mobile